Time;durP1;ratioP1;P1;durP2;ratioP2;P2;SDS_P1;SDS_P2;PMS_P1;PMS_P2;Temp;Humidity;BMP_temperature;BMP_pressure;BME280_temperature;BME280_humidity;BME280_pressure;Samples;Min_cycle;Max_cycle;Signal;HPM_P1;HPM_P2
2022/10/15 00:00:45;;;;;;;20.00;15.38;;;;;;;13.02;100.00;100631.31;4767035;30;20499;-53
2022/10/15 00:03:35;;;;;;;24.27;15.50;;;;;;;12.98;100.00;100635.72;4770723;30;20060;-56
2022/10/15 00:06:23;;;;;;;19.85;15.25;;;;;;;12.95;100.00;100630.84;4768873;30;20064;-50
2022/10/15 00:09:10;;;;;;;21.52;14.43;;;;;;;12.93;100.00;100638.53;4769522;30;20201;-52
2022/10/15 00:11:58;;;;;;;22.52;16.38;;;;;;;12.92;100.00;100634.97;4766425;30;20109;-53
2022/10/15 00:14:45;;;;;;;21.45;15.88;;;;;;;12.94;100.00;100645.59;4758396;30;20052;-52
2022/10/15 00:17:34;;;;;;;18.33;15.02;;;;;;;12.94;100.00;100634.66;4769535;30;20055;-54
2022/10/15 00:20:21;;;;;;;21.75;16.13;;;;;;;12.93;100.00;100635.78;4768062;30;20052;-53
2022/10/15 00:23:09;;;;;;;20.65;15.57;;;;;;;12.90;100.00;100631.72;4766335;30;20044;-52
2022/10/15 00:26:05;;;;;;;22.75;15.98;;;;;;;12.85;100.00;100639.16;4763536;30;20153;-51
2022/10/15 00:28:53;;;;;;;;;;;;;;;12.82;100.00;100636.97;4760929;30;20175;-53
2022/10/15 00:31:42;;;;;;;20.60;15.50;;;;;;;12.79;100.00;100639.19;4766064;30;19926;-56
2022/10/15 00:34:31;;;;;;;18.67;15.07;;;;;;;12.78;100.00;100643.03;4769200;30;20071;-54
2022/10/15 00:37:20;;;;;;;19.73;14.13;;;;;;;12.78;100.00;100637.56;4761278;30;20117;-52
2022/10/15 00:39:52;;;;;;;19.98;15.57;;;;;;;12.75;100.00;100640.88;4769820;30;20124;-49
2022/10/15 00:42:30;;;;;;;22.73;15.15;;;;;;;12.75;100.00;100640.88;4764719;30;20105;-54
2022/10/15 00:45:07;;;;;;;21.10;14.63;;;;;;;12.77;100.00;100635.94;4753694;30;20071;-53
2022/10/15 00:47:45;;;;;;;19.08;15.00;;;;;;;12.76;100.00;100645.22;4755625;30;20539;-55
2022/10/15 00:50:22;;;;;;;21.13;15.77;;;;;;;12.77;100.00;100646.03;4745549;30;20048;-49
2022/10/15 00:53:07;;;;;;;22.15;15.15;;;;;;;12.75;100.00;100643.59;4738637;30;20067;-51
2022/10/15 00:55:41;;;;;;;19.88;15.98;;;;;;;12.78;100.00;100645.75;4769385;30;20143;-49
2022/10/15 00:58:17;;;;;;;24.63;16.48;;;;;;;12.80;100.00;100645.47;4767982;30;20047;-52
2022/10/15 01:00:50;;;;;;;21.27;15.10;;;;;;;12.78;100.00;100642.22;4741165;30;20062;-53
2022/10/15 01:03:24;;;;;;;18.50;14.50;;;;;;;12.77;100.00;100641.41;4769280;30;20098;-52
2022/10/15 01:06:11;;;;;;;19.65;15.63;;;;;;;12.78;100.00;100632.09;4767760;30;20055;-55
2022/10/15 01:09:02;;;;;;;19.15;14.90;;;;;;;12.82;100.00;100636.97;4762463;30;20056;-54
2022/10/15 01:11:54;;;;;;;21.85;16.13;;;;;;;12.83;100.00;100641.34;4768624;30;20079;-51
2022/10/15 01:15:03;;;;;;;21.25;15.63;;;;;;;12.81;100.00;100630.69;4768723;30;20388;-53
2022/10/15 01:18:25;;;;;;;21.15;15.30;;;;;;;12.85;100.00;100631.75;4767459;30;20043;-54
2022/10/15 01:21:34;;;;;;;21.38;15.45;;;;;;;12.88;100.00;100624.91;4755285;30;20075;-52
2022/10/15 01:24:44;;;;;;;22.40;15.75;;;;;;;12.89;100.00;100615.56;4767390;30;20064;-55
2022/10/15 01:27:45;;;;;;;22.20;16.60;;;;;;;12.89;100.00;100615.56;4763190;30;20051;-53
2022/10/15 01:30:47;;;;;;;24.20;15.40;;;;;;;12.90;100.00;100611.75;4756304;30;20163;-52
2022/10/15 01:33:43;;;;;;;22.48;16.08;;;;;;;12.91;100.00;100607.91;4751230;30;20572;-55
2022/10/15 01:36:17;;;;;;;22.67;16.02;;;;;;;12.91;100.00;100603.25;4767375;30;20075;-56
2022/10/15 01:39:07;;;;;;;21.67;16.53;;;;;;;12.91;100.00;100603.25;4740350;30;20567;-57
2022/10/15 01:41:43;;;;;;;20.40;15.60;;;;;;;12.91;100.00;100602.44;4754451;30;20070;-54
2022/10/15 01:44:39;;;;;;;19.88;15.10;;;;;;;12.90;100.00;100601.63;4751947;30;20043;-55
2022/10/15 01:47:29;;;;;;;21.30;14.63;;;;;;;12.92;100.00;100606.81;4767131;30;20056;-56
2022/10/15 01:50:02;;;;;;;20.88;15.23;;;;;;;12.92;100.00;100609.56;4755602;30;20110;-53
2022/10/15 01:52:37;;;;;;;18.17;14.38;;;;;;;12.92;100.00;100607.63;4751065;30;20117;-52
2022/10/15 01:55:13;;;;;;;20.42;15.45;;;;;;;12.94;100.00;100599.13;4740165;30;20134;-51
2022/10/15 01:57:47;;;;;;;20.50;15.05;;;;;;;12.95;100.00;100598.03;4744661;30;20063;-54
2022/10/15 02:00:21;;;;;;;19.25;15.35;;;;;;;12.95;100.00;100593.38;4769452;30;20427;-51
2022/10/15 02:03:01;;;;;;;19.08;15.18;;;;;;;12.96;100.00;100596.91;4758634;30;20574;-55
2022/10/15 02:06:05;;;;;;;18.25;13.93;;;;;;;12.95;100.00;100598.84;4767413;30;20105;-53
2022/10/15 02:09:11;;;;;;;20.70;14.90;;;;;;;12.95;100.00;100598.84;4750912;30;20044;-55
2022/10/15 02:12:11;;;;;;;18.45;13.98;;;;;;;12.97;100.00;100587.63;4761419;30;20105;-52
2022/10/15 02:14:54;;;;;;;21.67;14.73;;;;;;;12.97;100.00;100585.69;4759749;30;20101;-55
2022/10/15 02:17:58;;;;;;;18.88;13.98;;;;;;;12.98;100.00;100587.31;4749773;30;20071;-55
2022/10/15 02:20:55;;;;;;;18.90;14.63;;;;;;;12.99;100.00;100583.50;4735257;30;20064;-51
2022/10/15 02:23:53;;;;;;;17.75;13.98;;;;;;;12.99;100.00;100582.69;4748225;30;20044;-49
2022/10/15 02:26:33;;;;;;;18.50;14.57;;;;;;;12.99;100.00;100578.03;4754090;30;20573;-49
2022/10/15 02:29:09;;;;;;;;;;;;;;;13.00;100.00;100573.34;4727600;30;20086;-55
2022/10/15 02:31:44;;;;;;;22.08;14.13;;;;;;;12.99;100.00;100567.09;4756480;30;19926;-54
2022/10/15 02:34:26;;;;;;;17.88;13.65;;;;;;;13.00;100.00;100571.44;4757875;30;20083;-57
2022/10/15 02:37:15;;;;;;;18.00;14.10;;;;;;;13.00;100.00;100571.44;4749139;30;20083;-54
2022/10/15 02:39:53;;;;;;;17.75;13.65;;;;;;;13.01;100.00;100569.50;4755830;30;20121;-54
2022/10/15 02:42:29;;;;;;;18.92;12.65;;;;;;;13.00;100.00;100563.22;4743469;30;20414;-51
2022/10/15 02:45:04;;;;;;;19.45;13.57;;;;;;;13.00;100.00;100556.94;4740247;30;20052;-53
2022/10/15 02:47:43;;;;;;;23.75;14.10;;;;;;;12.99;100.00;100558.06;4769511;30;20043;-55
2022/10/15 02:50:17;;;;;;;18.08;13.57;;;;;;;12.98;100.00;100557.22;4770742;30;20071;-59
2022/10/15 02:52:50;;;;;;;17.10;13.15;;;;;;;12.97;100.00;100552.06;4756343;30;20048;-51
2022/10/15 02:55:23;;;;;;;16.75;13.15;;;;;;;12.98;100.00;100548.22;4724821;30;20060;-55
2022/10/15 02:58:11;;;;;;;17.10;13.20;;;;;;;12.95;100.00;100548.81;4780371;29;20066;-56
2022/10/15 03:00:55;;;;;;;20.30;13.43;;;;;;;12.90;100.00;100546.94;4759921;30;20047;-55
2022/10/15 03:03:43;;;;;;;15.25;12.18;;;;;;;12.89;100.00;100544.47;4769523;30;20054;-52
2022/10/15 03:06:25;;;;;;;16.67;13.75;;;;;;;12.88;100.00;100534.66;4768411;30;20500;-49
2022/10/15 03:09:13;;;;;;;16.90;13.02;;;;;;;12.90;100.00;100535.19;4760683;30;20044;-57
2022/10/15 03:12:00;;;;;;;17.02;13.18;;;;;;;12.90;100.00;100527.00;4771145;30;20048;-51
2022/10/15 03:14:44;;;;;;;17.55;12.80;;;;;;;12.90;100.00;100527.00;4771334;30;20048;-51
2022/10/15 03:17:33;;;;;;;17.15;12.13;;;;;;;12.88;100.00;100527.28;4769134;30;20052;-51
2022/10/15 03:20:17;;;;;;;18.73;12.65;;;;;;;12.88;100.00;100518.25;4764100;30;20526;-52
2022/10/15 03:23:05;;;;;;;18.92;13.05;;;;;;;12.89;100.00;100519.88;4758287;30;20056;-50
2022/10/15 03:25:53;;;;;;;17.08;13.10;;;;;;;12.88;100.00;100521.78;4757598;30;20101;-51
2022/10/15 03:28:41;;;;;;;17.85;12.82;;;;;;;12.87;100.00;100525.66;4770638;30;20055;-50
2022/10/15 03:31:25;;;;;;;14.95;12.25;;;;;;;12.88;100.00;100531.94;4769533;30;20047;-51
2022/10/15 03:34:08;;;;;;;15.50;11.98;;;;;;;12.89;100.00;100522.59;4770206;30;20142;-51
2022/10/15 03:36:56;;;;;;;14.52;11.25;;;;;;;12.91;100.00;100536.81;4760332;30;20097;-50
2022/10/15 03:39:39;;;;;;;14.90;11.43;;;;;;;12.91;100.00;100534.06;4755109;30;20082;-54
2022/10/15 03:42:25;;;;;;;15.77;11.90;;;;;;;12.92;100.00;100533.78;4756753;30;20055;-55
2022/10/15 03:45:10;;;;;;;15.93;12.15;;;;;;;12.93;100.00;100529.13;4770890;30;20590;-56
2022/10/15 03:47:58;;;;;;;15.85;12.15;;;;;;;12.92;100.00;100532.97;4757644;30;20048;-55
2022/10/15 03:50:40;;;;;;;17.40;11.70;;;;;;;12.91;100.00;100525.88;4751850;30;20055;-52
2022/10/15 03:53:28;;;;;;;15.50;11.70;;;;;;;12.90;100.00;100513.31;4770128;30;20070;-54
2022/10/15 03:56:09;;;;;;;20.67;13.15;;;;;;;12.89;100.00;100517.97;4767412;30;20072;-55
2022/10/15 03:58:57;;;;;;;16.48;12.68;;;;;;;12.87;100.00;100519.34;4762209;30;20052;-56
2022/10/15 04:01:35;;;;;;;16.58;12.45;;;;;;;12.85;100.00;100516.91;4755355;30;20055;-54
2022/10/15 04:04:20;;;;;;;15.70;11.90;;;;;;;12.82;100.00;100517.50;4743954;30;20040;-52
2022/10/15 04:07:07;;;;;;;16.98;12.65;;;;;;;12.79;100.00;100518.91;4766738;30;20052;-56
2022/10/15 04:09:44;;;;;;;16.77;12.13;;;;;;;12.79;100.00;100516.19;4748039;30;20052;-57
2022/10/15 04:12:45;;;;;;;16.33;12.57;;;;;;;12.79;100.00;100509.88;4756595;30;20054;-52
2022/10/15 04:15:38;;;;;;;15.75;12.55;;;;;;;12.79;100.00;100516.19;4767852;30;20083;-52
2022/10/15 04:18:29;;;;;;;17.27;13.23;;;;;;;12.79;100.00;100513.44;4769517;30;20056;-50
2022/10/15 04:21:18;;;;;;;17.15;13.15;;;;;;;12.78;100.00;100522.72;4769070;30;20059;-55
2022/10/15 04:24:10;;;;;;;16.65;12.60;;;;;;;12.79;100.00;100518.91;4757659;30;20051;-51
2022/10/15 04:27:00;;;;;;;15.98;12.18;;;;;;;12.83;100.00;100523.78;4765367;30;20059;-52
2022/10/15 04:29:48;;;;;;;20.35;13.90;;;;;;;12.85;100.00;100533.31;4769603;30;20066;-47
2022/10/15 04:32:35;;;;;;;16.38;12.68;;;;;;;12.87;100.00;100535.75;4778581;29;20058;-51
2022/10/15 04:35:23;;;;;;;17.05;13.65;;;;;;;12.90;100.00;100540.66;4766991;30;20569;-52
2022/10/15 04:38:29;;;;;;;;;;;;;;;12.91;100.00;100539.53;4757477;30;20134;-50
2022/10/15 04:41:22;;;;;;;19.33;12.55;;;;;;;12.91;100.00;100532.16;4763659;30;20022;-50
2022/10/15 04:44:23;;;;;;;19.77;13.43;;;;;;;12.91;100.00;100529.41;4748192;30;20126;-53
2022/10/15 04:47:16;;;;;;;19.15;14.00;;;;;;;12.91;100.00;100529.41;4746341;30;20044;-52
2022/10/15 04:50:11;;;;;;;16.58;13.18;;;;;;;12.88;100.00;100523.72;4764171;30;20144;-50
2022/10/15 04:53:18;;;;;;;19.25;13.88;;;;;;;12.87;100.00;100524.81;4758842;30;20063;-53
2022/10/15 04:56:14;;;;;;;17.15;13.45;;;;;;;12.87;100.00;100531.13;4756225;30;20092;-54
2022/10/15 04:59:04;;;;;;;18.88;15.30;;;;;;;12.87;100.00;100522.09;4768912;30;20059;-49
2022/10/15 05:01:56;;;;;;;20.15;16.60;;;;;;;12.88;100.00;100526.47;4766931;30;20040;-55
2022/10/15 05:04:45;;;;;;;21.73;16.33;;;;;;;12.87;100.00;100524.81;4755833;30;20048;-53
2022/10/15 05:07:32;;;;;;;23.27;17.35;;;;;;;12.88;100.00;100523.72;4769066;30;20078;-50
2022/10/15 05:10:20;;;;;;;27.27;19.27;;;;;;;12.88;100.00;100521.78;4770343;30;20075;-50
2022/10/15 05:13:10;;;;;;;17.48;13.98;;;;;;;12.92;100.00;100524.78;4768471;30;20139;-50
2022/10/15 05:16:10;;;;;;;21.75;16.20;;;;;;;12.95;100.00;100526.94;4756744;30;20059;-52
2022/10/15 05:19:05;;;;;;;19.55;14.00;;;;;;;12.98;100.00;100523.59;4771512;30;20051;-52
2022/10/15 05:21:54;;;;;;;20.35;14.98;;;;;;;12.98;100.00;100532.63;4762778;30;20143;-51
2022/10/15 05:24:44;;;;;;;17.50;13.05;;;;;;;13.01;100.00;100525.75;4767061;30;20097;-50
2022/10/15 05:27:44;;;;;;;18.23;14.55;;;;;;;13.04;100.00;100535.31;4765605;30;20048;-48
2022/10/15 05:30:34;;;;;;;22.83;16.05;;;;;;;13.06;100.00;100530.34;4768360;30;20051;-54
2022/10/15 05:33:23;;;;;;;17.50;12.93;;;;;;;13.05;100.00;100521.34;4748589;30;20050;-52
2022/10/15 05:36:25;;;;;;;19.30;15.55;;;;;;;13.06;100.00;100535.81;4763369;30;20043;-51
2022/10/15 05:39:15;;;;;;;20.25;14.63;;;;;;;13.06;100.00;100528.44;4767637;30;20139;-52
2022/10/15 05:42:04;;;;;;;18.67;14.88;;;;;;;13.07;100.00;100529.25;4775874;29;20046;-51
2022/10/15 05:44:46;;;;;;;16.42;12.65;;;;;;;13.07;100.00;100530.06;4751801;30;20051;-50
2022/10/15 05:47:34;;;;;;;24.50;19.92;;;;;;;13.06;100.00;100533.91;4760284;30;20051;-52
2022/10/15 05:50:26;;;;;;;25.75;19.45;;;;;;;13.04;100.00;100530.66;4755282;30;20055;-51
2022/10/15 05:53:12;;;;;;;23.60;18.13;;;;;;;13.04;100.00;100535.31;4764726;30;20051;-50
2022/10/15 05:56:07;;;;;;;25.27;18.70;;;;;;;13.03;100.00;100536.41;4764791;30;20139;-54
2022/10/15 05:58:55;;;;;;;23.83;18.98;;;;;;;13.02;100.00;100530.13;4776424;30;20052;-52
2022/10/15 06:01:39;;;;;;;22.02;18.02;;;;;;;13.04;100.00;100530.66;4755330;30;20496;-50
2022/10/15 06:04:20;;;;;;;24.95;18.15;;;;;;;13.04;100.00;100527.91;4755764;30;20052;-52
2022/10/15 06:07:08;;;;;;;24.70;17.77;;;;;;;13.05;100.00;100535.00;4770439;30;20146;-50
2022/10/15 06:09:50;;;;;;;21.65;17.38;;;;;;;13.05;100.00;100524.06;4759350;30;20148;-52
2022/10/15 06:12:35;;;;;;;23.23;17.27;;;;;;;13.05;100.00;100531.47;4770908;30;20055;-51
2022/10/15 06:15:12;;;;;;;20.17;16.95;;;;;;;13.04;100.00;100525.19;4768432;30;20449;-49
2022/10/15 06:18:00;;;;;;;22.55;18.00;;;;;;;13.05;100.00;100526.81;4773167;30;20055;-49
2022/10/15 06:20:42;;;;;;;20.50;17.23;;;;;;;13.04;100.00;100527.91;4758592;30;20094;-54
2022/10/15 06:23:30;;;;;;;23.73;17.73;;;;;;;13.04;100.00;100519.72;4770168;30;20094;-52
2022/10/15 06:26:17;;;;;;;21.20;17.67;;;;;;;13.06;100.00;100519.41;4772387;29;20048;-53
2022/10/15 06:29:00;;;;;;;24.77;17.60;;;;;;;13.06;100.00;100528.44;4744858;30;20139;-51
2022/10/15 06:31:43;;;;;;;22.75;17.98;;;;;;;13.06;100.00;100528.44;4768435;30;20135;-52
2022/10/15 06:34:31;;;;;;;20.60;17.08;;;;;;;13.07;100.00;100524.59;4773184;30;20101;-54
2022/10/15 06:37:19;;;;;;;20.63;16.70;;;;;;;13.07;100.00;100524.59;4760129;30;20102;-58
2022/10/15 06:39:58;;;;;;;24.15;16.38;;;;;;;13.07;100.00;100532.78;4770653;30;20523;-54
2022/10/15 06:42:45;;;;;;;22.52;17.92;;;;;;;13.08;100.00;100531.69;4772236;30;20105;-51
2022/10/15 06:45:35;;;;;;;21.38;17.05;;;;;;;13.08;100.00;100537.16;4770416;30;20051;-52
2022/10/15 06:48:26;;;;;;;19.88;16.85;;;;;;;13.09;100.00;100527.03;4762998;30;20082;-55
2022/10/15 06:51:12;;;;;;;26.27;20.45;;;;;;;13.10;100.00;100523.19;4771470;30;20097;-51
2022/10/15 06:54:01;;;;;;;26.67;21.45;;;;;;;13.09;100.00;100533.31;4771683;30;20086;-51
2022/10/15 06:56:48;;;;;;;27.50;22.92;;;;;;;13.07;100.00;100530.06;4770704;30;20071;-50
2022/10/15 06:59:32;;;;;;;29.05;23.70;;;;;;;13.09;100.00;100538.00;4769761;30;20043;-55
2022/10/15 07:02:16;;;;;;;28.02;21.95;;;;;;;13.10;100.00;100537.69;4771639;30;20066;-52
2022/10/15 07:05:02;;;;;;;28.45;22.30;;;;;;;13.08;100.00;100537.16;4771200;30;20059;-54
2022/10/15 07:07:54;;;;;;;23.20;16.65;;;;;;;13.09;100.00;100536.06;4770756;30;20048;-51
2022/10/15 07:10:43;;;;;;;23.50;19.25;;;;;;;13.11;100.00;100533.03;4772480;30;20117;-50
2022/10/15 07:13:32;;;;;;;25.20;17.45;;;;;;;13.13;100.00;100542.59;4772457;30;20059;-51
2022/10/15 07:16:20;;;;;;;24.92;17.13;;;;;;;13.14;100.00;100541.47;4769810;30;20051;-52
2022/10/15 07:19:08;;;;;;;22.10;17.85;;;;;;;13.15;100.00;100540.34;4771275;30;20456;-51
2022/10/15 07:21:54;;;;;;;21.35;18.13;;;;;;;13.17;100.00;100538.13;4771468;30;20054;-52
2022/10/15 07:24:37;;;;;;;20.63;17.02;;;;;;;13.17;100.00;100532.66;4771026;30;20142;-54
2022/10/15 07:27:24;;;;;;;22.27;16.92;;;;;;;13.18;100.00;100526.09;4780196;29;20056;-50
2022/10/15 07:30:13;;;;;;;21.90;16.88;;;;;;;13.18;100.00;100531.56;4759885;30;20527;-50
2022/10/15 07:33:00;;;;;;;22.52;16.45;;;;;;;13.18;100.00;100526.09;4771117;30;20055;-54
2022/10/15 07:35:47;;;;;;;22.40;17.38;;;;;;;13.19;100.00;100524.19;4766544;30;20105;-49
2022/10/15 07:38:35;;;;;;;18.83;15.90;;;;;;;13.21;100.00;100528.25;4772835;29;20104;-50
2022/10/15 07:41:23;;;;;;;20.73;16.60;;;;;;;13.22;100.00;100523.59;4770917;30;20503;-52
2022/10/15 07:44:11;;;;;;;20.83;16.30;;;;;;;13.22;100.00;100513.44;4771110;30;20079;-52
2022/10/15 07:46:58;;;;;;;19.88;15.90;;;;;;;13.24;100.00;100501.41;4770756;30;20087;-56
2022/10/15 07:49:46;;;;;;;22.63;16.95;;;;;;;13.25;100.00;100501.09;4772675;30;20134;-51
2022/10/15 07:52:33;;;;;;;20.90;16.80;;;;;;;13.26;100.00;100500.00;4773074;30;20456;-55
2022/10/15 07:55:21;;;;;;;22.25;16.38;;;;;;;13.29;100.00;100498.63;4769832;30;20538;-56
2022/10/15 07:58:08;;;;;;;24.30;17.17;;;;;;;13.29;100.00;100499.44;4767429;30;20056;-53
2022/10/15 08:00:52;;;;;;;20.23;16.55;;;;;;;13.31;100.00;100507.38;4770904;30;20078;-50
2022/10/15 08:03:38;;;;;;;22.85;15.93;;;;;;;13.32;100.00;100501.59;4770684;30;20432;-49
2022/10/15 08:06:26;;;;;;;19.60;15.25;;;;;;;13.35;100.00;100503.75;4770042;30;20066;-51
2022/10/15 08:09:14;;;;;;;21.85;15.45;;;;;;;13.37;100.00;100492.50;4767352;30;20075;-52
2022/10/15 08:12:01;;;;;;;19.15;15.75;;;;;;;13.38;100.00;100485.94;4771333;30;20056;-51
2022/10/15 08:14:49;;;;;;;21.90;15.52;;;;;;;13.40;100.00;100486.44;4782021;29;20044;-51
2022/10/15 08:17:37;;;;;;;20.67;15.55;;;;;;;13.42;100.00;100492.41;4759822;30;20408;-54
2022/10/15 08:20:25;;;;;;;19.52;14.82;;;;;;;13.43;100.00;100488.59;4770875;30;20059;-52
2022/10/15 08:23:16;;;;;;;18.88;14.55;;;;;;;13.43;100.00;100494.88;4770419;30;20055;-53
2022/10/15 08:26:04;;;;;;;22.40;14.35;;;;;;;13.44;100.00;100490.22;4770989;30;20109;-52
2022/10/15 08:28:52;;;;;;;20.88;14.52;;;;;;;13.43;100.00;100489.41;4770656;30;20120;-53
2022/10/15 08:31:40;;;;;;;21.08;14.82;;;;;;;13.48;100.00;100480.31;4771304;30;20039;-52
2022/10/15 08:34:27;;;;;;;17.67;12.95;;;;;;;13.50;100.00;100489.03;4771416;30;20048;-54
2022/10/15 08:37:15;;;;;;;17.52;13.10;;;;;;;13.53;100.00;100482.16;4763388;30;20055;-54
2022/10/15 08:40:04;;;;;;;18.73;13.30;;;;;;;13.56;100.00;100476.88;4758009;30;20412;-56
2022/10/15 08:42:52;;;;;;;21.73;12.63;;;;;;;13.58;100.00;100469.19;4769529;30;20048;-54
2022/10/15 08:45:43;;;;;;;18.05;12.27;;;;;;;13.61;100.00;100474.09;4768516;30;20403;-56
2022/10/15 08:48:41;;;;;;;14.48;11.05;;;;;;;13.64;100.00;100478.97;4770378;30;20056;-52
2022/10/15 08:51:42;;;;;;;18.23;12.80;;;;;;;13.67;100.00;100471.28;4756863;30;20075;-55
2022/10/15 08:54:31;;;;;;;14.75;11.48;;;;;;;13.69;100.00;100458.91;4769606;30;20594;-53
2022/10/15 08:57:39;;;;;;;15.25;11.32;;;;;;;13.71;100.00;100462.19;4759894;30;20128;-55
2022/10/15 09:00:43;;;;;;;13.70;10.07;;;;;;;13.73;100.00;100450.91;4770503;30;20056;-55
2022/10/15 09:03:51;;;;;;;14.95;10.65;;;;;;;13.74;100.00;100450.63;4757302;30;20507;-53
2022/10/15 09:06:40;;;;;;;15.13;11.52;;;;;;;13.75;100.00;100454.97;4759261;30;20052;-54
2022/10/15 09:09:40;;;;;;;14.25;10.43;;;;;;;13.78;100.00;100448.94;4768046;30;20051;-55
2022/10/15 09:12:52;;;;;;;14.07;9.27;;;;;;;13.81;100.00;100445.56;4770523;30;20087;-56
2022/10/15 09:16:19;;;;;;;13.38;9.77;;;;;;;13.84;100.00;100444.16;4763770;30;20112;-56
2022/10/15 09:19:19;;;;;;;16.83;9.95;;;;;;;13.86;100.00;100433.72;4770336;30;20059;-55
2022/10/15 09:22:11;;;;;;;15.60;9.63;;;;;;;13.87;100.00;100432.59;4768591;30;20056;-58
2022/10/15 09:25:01;;;;;;;16.13;9.65;;;;;;;13.88;100.00;100434.25;4766751;30;20048;-54
2022/10/15 09:27:50;;;;;;;13.00;9.07;;;;;;;13.88;100.00;100427.94;4769834;30;20058;-56
2022/10/15 09:30:48;;;;;;;11.98;8.90;;;;;;;13.89;100.00;100418.63;4756752;30;20063;-55
2022/10/15 09:33:42;;;;;;;12.27;8.93;;;;;;;13.89;100.00;100424.09;4746311;30;20055;-54
2022/10/15 09:36:50;;;;;;;12.90;9.10;;;;;;;13.89;100.00;100424.09;4768736;30;20051;-55
2022/10/15 09:40:11;;;;;;;15.10;9.65;;;;;;;13.89;100.00;100419.44;4770498;30;20048;-56
2022/10/15 09:42:58;;;;;;;13.77;8.73;;;;;;;13.91;100.00;100417.22;4757660;30;20079;-57
2022/10/15 09:45:45;;;;;;;13.25;8.30;;;;;;;13.92;100.00;100418.81;4767814;30;20059;-57
2022/10/15 09:48:55;;;;;;;13.18;8.63;;;;;;;13.93;100.00;100408.69;4756049;30;20044;-54
2022/10/15 09:52:05;;;;;;;12.20;8.73;;;;;;;13.93;100.00;100414.19;4770529;30;20078;-57
2022/10/15 09:55:07;;;;;;;11.32;8.52;;;;;;;13.92;100.00;100407.88;4760900;30;20056;-54
2022/10/15 09:57:57;;;;;;;12.93;8.40;;;;;;;13.93;100.00;100409.50;4769814;30;20573;-52
2022/10/15 10:00:50;;;;;;;11.77;8.38;;;;;;;13.93;100.00;100409.50;4756598;30;20098;-56
2022/10/15 10:03:37;;;;;;;12.70;8.35;;;;;;;13.96;100.00;100408.09;4768835;30;20464;-49
2022/10/15 10:06:25;;;;;;;14.25;8.27;;;;;;;13.96;100.00;100399.88;4768158;30;20084;-53
2022/10/15 10:09:20;;;;;;;10.88;7.70;;;;;;;13.94;100.00;100399.34;4755811;30;20055;-54
2022/10/15 10:12:17;;;;;;;12.20;8.10;;;;;;;13.96;100.00;100394.41;4769395;30;20047;-54
2022/10/15 10:15:33;;;;;;;12.35;8.32;;;;;;;13.95;100.00;100395.50;4768190;30;20087;-50
2022/10/15 10:18:21;;;;;;;;;;;;;;;13.96;100.00;100397.13;4770123;30;20064;-48
2022/10/15 10:21:33;;;;;;;11.82;7.85;;;;;;;13.97;100.00;100385.84;4769742;30;19926;-50
2022/10/15 10:24:29;;;;;;;12.25;7.57;;;;;;;13.99;100.00;100388.31;4767324;30;20063;-51
2022/10/15 10:27:23;;;;;;;13.52;7.53;;;;;;;13.98;100.00;100387.50;4768823;30;20063;-52
2022/10/15 10:30:13;;;;;;;13.30;8.48;;;;;;;13.99;100.00;100386.38;4767136;30;20047;-51
2022/10/15 10:33:02;;;;;;;12.93;7.55;;;;;;;13.98;100.00;100390.25;4769344;30;20143;-51
2022/10/15 10:35:46;;;;;;;10.90;7.50;;;;;;;14.00;100.00;100393.50;4754344;30;20056;-51
2022/10/15 10:38:21;;;;;;;10.73;7.03;;;;;;;14.01;100.00;100386.09;4754142;30;20052;-51
2022/10/15 10:40:57;;;;;;;10.60;7.53;;;;;;;14.01;100.00;100392.38;4768614;30;20064;-54
2022/10/15 10:43:32;;;;;;;11.98;7.20;;;;;;;14.05;100.00;100398.88;4739335;30;20503;-50
2022/10/15 10:46:14;;;;;;;11.80;6.30;;;;;;;14.05;100.00;100387.91;4768221;30;20048;-54
2022/10/15 10:48:53;;;;;;;12.27;7.15;;;;;;;14.10;100.00;100388.94;4758078;30;20155;-50
2022/10/15 10:51:29;;;;;;;10.13;6.72;;;;;;;14.10;100.00;100392.50;4755473;30;20047;-52
2022/10/15 10:54:08;;;;;;;10.68;6.40;;;;;;;14.13;100.00;100391.06;4735615;30;20404;-51
2022/10/15 10:56:43;;;;;;;10.63;5.68;;;;;;;14.16;100.00;100395.94;4746527;30;20051;-46
2022/10/15 10:59:28;;;;;;;9.75;6.10;;;;;;;14.17;100.00;100397.59;4771660;30;20068;-48
2022/10/15 11:02:00;;;;;;;10.85;6.07;;;;;;;14.18;100.00;100396.47;4771465;30;20076;-60
2022/10/15 11:04:35;;;;;;;10.70;5.88;;;;;;;14.19;100.00;100387.09;4753704;30;20749;-48
2022/10/15 11:07:23;;;;;;;9.75;5.72;;;;;;;14.22;100.00;100383.78;4755571;30;20135;-49
2022/10/15 11:10:23;;;;;;;9.23;5.45;;;;;;;14.21;100.00;100374.72;4770786;30;20051;-49
2022/10/15 11:13:21;;;;;;;9.93;5.10;;;;;;;14.25;100.00;100377.69;4755632;30;20056;-61
2022/10/15 11:16:02;;;;;;;8.38;5.03;;;;;;;14.25;100.00;100381.25;4764404;30;20083;-58
2022/10/15 11:18:59;;;;;;;8.32;4.00;;;;;;;14.27;100.00;100375.47;4755100;30;20044;-55
2022/10/15 11:22:00;;;;;;;6.25;3.45;;;;;;;14.30;100.00;100374.03;4770603;30;20059;-53
2022/10/15 11:25:07;;;;;;;7.55;3.53;;;;;;;14.32;100.00;100372.63;4768958;30;20051;-55
2022/10/15 11:28:22;;;;;;;40.45;19.73;;;;;;;14.36;100.00;100370.91;4764316;30;20053;-53
2022/10/15 11:31:18;;;;;;;44.42;22.52;;;;;;;14.40;100.00;100363.69;4743961;30;20101;-54
2022/10/15 11:34:20;;;;;;;14.25;6.97;;;;;;;14.42;100.00;100369.66;4769147;30;20121;-54
2022/10/15 11:37:07;;;;;;;47.03;21.77;;;;;;;14.44;100.00;100366.63;4761522;30;20051;-57
2022/10/15 11:40:00;;;;;;;22.83;11.18;;;;;;;14.46;100.00;100362.47;4768926;30;20121;-60
2022/10/15 11:42:56;;;;;;;34.95;17.65;;;;;;;14.48;100.00;100365.72;4770756;30;20515;-60
2022/10/15 11:45:59;;;;;;;39.95;19.63;;;;;;;14.51;100.00;100363.50;4751650;30;20052;-60
2022/10/15 11:48:53;;;;;;;58.13;29.10;;;;;;;14.53;100.00;100370.28;4737410;30;20149;-57
2022/10/15 11:51:45;;;;;;;41.92;21.48;;;;;;;14.56;100.00;100360.66;4765289;30;20067;-59
2022/10/15 11:54:34;;;;;;;44.28;22.80;;;;;;;14.60;100.00;100361.66;4755767;30;20097;-51
2022/10/15 11:57:24;;;;;;;48.00;24.23;;;;;;;14.63;100.00;100355.59;4755755;30;20066;-59
2022/10/15 12:00:29;;;;;;;13.00;6.15;;;;;;;14.67;100.00;100351.94;4770555;30;20056;-61
2022/10/15 12:03:28;;;;;;;4.22;2.53;;;;;;;14.73;100.00;100357.31;4765399;30;20080;-58
2022/10/15 12:06:10;;;;;;;4.45;2.70;;;;;;;14.77;100.00;100355.53;4754331;30;20569;-60
2022/10/15 12:08:56;;;;;;;3.20;2.47;;;;;;;14.79;100.00;100356.06;4769772;30;20414;-59
2022/10/15 12:11:46;;;;;;;10.80;5.28;;;;;;;14.80;100.00;100355.75;4753472;30;20542;-55
2022/10/15 12:15:12;;;;;;;7.72;4.03;;;;;;;14.82;100.00;100348.03;4753735;30;20072;-58
2022/10/15 12:18:16;;;;;;;8.57;3.53;;;;;;;14.83;100.00;100349.66;4761137;30;20415;-56
2022/10/15 12:21:20;;;;;;;5.60;2.28;;;;;;;14.85;100.00;100352.09;4764388;30;20048;-56
2022/10/15 12:24:36;;;;;;;3.40;2.30;;;;;;;14.90;100.00;100351.97;4756358;30;20068;-57
2022/10/15 12:27:29;;;;;;;29.85;16.20;;;;;;;14.90;100.00;100352.78;4768236;30;20114;-58
2022/10/15 12:30:10;;;;;;;33.92;16.33;;;;;;;14.90;100.00;100350.03;4766081;30;20112;-57
2022/10/15 12:32:53;;;;;;;29.23;14.35;;;;;;;14.95;100.00;100345.56;4756520;30;20064;-58
2022/10/15 12:35:36;;;;;;;42.15;18.85;;;;;;;15.04;100.00;100343.72;4770403;30;20423;-57
2022/10/15 12:38:40;;;;;;;78.93;37.55;;;;;;;15.04;100.00;100333.53;4758132;30;20051;-59
2022/10/15 12:41:41;;;;;;;29.83;14.52;;;;;;;15.12;100.00;100335.53;4754837;30;20515;-53
2022/10/15 12:44:28;;;;;;;29.88;14.82;;;;;;;15.20;100.00;100349.63;4770015;30;20466;-59